sensor_id;sensor_type;location;lat;lon;timestamp;pressure;altitude;pressure_sealevel;temperature;humidity
19096;BME280;9680;52.520;13.332;2023-06-22T00:02:04;101595.97;;;22.26;63.78
19096;BME280;9680;52.520;13.332;2023-06-22T00:04:31;101591.97;;;22.21;64.36
19096;BME280;9680;52.520;13.332;2023-06-22T00:06:57;101593.03;;;22.18;64.42
19096;BME280;9680;52.520;13.332;2023-06-22T00:09:25;101595.06;;;22.15;64.51
19096;BME280;9680;52.520;13.332;2023-06-22T00:11:52;101592.53;;;22.13;64.84
19096;BME280;9680;52.520;13.332;2023-06-22T00:14:19;101601.53;;;22.10;64.95
19096;BME280;9680;52.520;13.332;2023-06-22T00:16:46;101608.78;;;22.08;64.91
19096;BME280;9680;52.520;13.332;2023-06-22T00:19:14;101609.84;;;22.06;64.86
19096;BME280;9680;52.520;13.332;2023-06-22T00:21:43;101618.03;;;22.03;64.94
19096;BME280;9680;52.520;13.332;2023-06-22T00:24:12;101626.97;;;22.02;65.08
19096;BME280;9680;52.520;13.332;2023-06-22T00:26:40;101627.41;;;21.95;65.35
19096;BME280;9680;52.520;13.332;2023-06-22T00:29:09;101621.59;;;21.90;65.68
19096;BME280;9680;52.520;13.332;2023-06-22T00:31:35;101621.59;;;21.90;65.81
19096;BME280;9680;52.520;13.332;2023-06-22T00:34:03;101620.72;;;21.90;66.19
19096;BME280;9680;52.520;13.332;2023-06-22T00:36:34;101626.25;;;21.87;66.00
19096;BME280;9680;52.520;13.332;2023-06-22T00:39:02;101619.34;;;21.84;66.30
19096;BME280;9680;52.520;13.332;2023-06-22T00:41:30;101622.34;;;21.79;66.62
19096;BME280;9680;52.520;13.332;2023-06-22T00:43:58;101621.94;;;21.73;66.68
19096;BME280;9680;52.520;13.332;2023-06-22T00:46:25;101627.69;;;21.66;67.06
19096;BME280;9680;52.520;13.332;2023-06-22T00:48:52;101625.66;;;21.57;67.21
19096;BME280;9680;52.520;13.332;2023-06-22T00:51:22;101630.53;;;21.50;67.54
19096;BME280;9680;52.520;13.332;2023-06-22T00:53:50;101623.53;;;21.49;67.55
19096;BME280;9680;52.520;13.332;2023-06-22T00:56:17;101623.44;;;21.51;67.77
19096;BME280;9680;52.520;13.332;2023-06-22T00:58:45;101630.88;;;21.46;68.04
19096;BME280;9680;52.520;13.332;2023-06-22T01:01:13;101627.47;;;21.44;67.88
19096;BME280;9680;52.520;13.332;2023-06-22T01:03:40;101631.91;;;21.43;68.20
19096;BME280;9680;52.520;13.332;2023-06-22T01:06:10;101630.34;;;21.41;68.34
19096;BME280;9680;52.520;13.332;2023-06-22T01:08:46;101622.63;;;21.37;68.64
19096;BME280;9680;52.520;13.332;2023-06-22T01:11:19;101624.53;;;21.35;68.88
19096;BME280;9680;52.520;13.332;2023-06-22T01:13:52;101634.25;;;21.35;68.95
19096;BME280;9680;52.520;13.332;2023-06-22T01:16:27;101630.25;;;21.29;68.94
19096;BME280;9680;52.520;13.332;2023-06-22T01:18:56;101644.25;;;21.31;68.87
19096;BME280;9680;52.520;13.332;2023-06-22T01:21:25;101637.34;;;21.29;69.00
19096;BME280;9680;52.520;13.332;2023-06-22T01:24:06;101644.56;;;21.27;69.34
19096;BME280;9680;52.520;13.332;2023-06-22T01:26:42;101638.81;;;21.33;69.03
19096;BME280;9680;52.520;13.332;2023-06-22T01:29:12;101629.09;;;21.33;69.02
19096;BME280;9680;52.520;13.332;2023-06-22T01:31:42;101643.16;;;21.34;69.05
19096;BME280;9680;52.520;13.332;2023-06-22T01:34:12;101635.22;;;21.34;69.46
19096;BME280;9680;52.520;13.332;2023-06-22T01:36:40;101634.38;;;21.33;69.20
19096;BME280;9680;52.520;13.332;2023-06-22T01:39:08;101648.25;;;21.37;69.19
19096;BME280;9680;52.520;13.332;2023-06-22T01:41:37;101651.13;;;21.34;69.21
19096;BME280;9680;52.520;13.332;2023-06-22T01:44:05;101658.97;;;21.35;69.14
19096;BME280;9680;52.520;13.332;2023-06-22T01:46:34;101656.41;;;21.34;69.16
19096;BME280;9680;52.520;13.332;2023-06-22T01:49:01;101654.09;;;21.29;69.53
19096;BME280;9680;52.520;13.332;2023-06-22T01:51:29;101649.84;;;21.27;69.30
19096;BME280;9680;52.520;13.332;2023-06-22T01:53:59;101652.63;;;21.25;69.37
19096;BME280;9680;52.520;13.332;2023-06-22T01:56:26;101646.66;;;21.21;69.86
19096;BME280;9680;52.520;13.332;2023-06-22T01:59:01;101651.22;;;21.19;70.15
19096;BME280;9680;52.520;13.332;2023-06-22T02:01:39;101650.50;;;21.17;70.31
19096;BME280;9680;52.520;13.332;2023-06-22T02:04:12;101650.06;;;21.10;70.61
19096;BME280;9680;52.520;13.332;2023-06-22T02:06:42;101652.06;;;21.07;70.57
19096;BME280;9680;52.520;13.332;2023-06-22T02:09:14;101649.53;;;21.05;70.96
19096;BME280;9680;52.520;13.332;2023-06-22T02:11:44;101652.06;;;21.07;71.00
19096;BME280;9680;52.520;13.332;2023-06-22T02:14:13;101649.44;;;21.07;71.04
19096;BME280;9680;52.520;13.332;2023-06-22T02:16:43;101653.13;;;21.04;71.72
19096;BME280;9680;52.520;13.332;2023-06-22T02:19:10;101659.28;;;21.05;72.06
19096;BME280;9680;52.520;13.332;2023-06-22T02:21:37;101661.94;;;21.05;72.28
19096;BME280;9680;52.520;13.332;2023-06-22T02:24:04;101666.06;;;21.09;72.36
19096;BME280;9680;52.520;13.332;2023-06-22T02:26:31;101669.25;;;21.14;72.47
19096;BME280;9680;52.520;13.332;2023-06-22T02:29:01;101678.56;;;21.20;72.36
19096;BME280;9680;52.520;13.332;2023-06-22T02:31:28;101667.88;;;21.21;72.19
19096;BME280;9680;52.520;13.332;2023-06-22T02:33:57;101670.31;;;21.24;72.39
19096;BME280;9680;52.520;13.332;2023-06-22T02:36:24;101668.41;;;21.27;72.68
19096;BME280;9680;52.520;13.332;2023-06-22T02:38:53;101667.88;;;21.34;72.47
19096;BME280;9680;52.520;13.332;2023-06-22T02:41:21;101662.16;;;21.41;72.19
19096;BME280;9680;52.520;13.332;2023-06-22T02:43:48;101660.75;;;21.48;72.28
19096;BME280;9680;52.520;13.332;2023-06-22T02:46:18;101668.38;;;21.52;72.07
19096;BME280;9680;52.520;13.332;2023-06-22T02:48:46;101671.66;;;21.56;71.96
19096;BME280;9680;52.520;13.332;2023-06-22T02:51:14;101668.94;;;21.58;71.62
19096;BME280;9680;52.520;13.332;2023-06-22T02:53:41;101667.84;;;21.60;71.72
19096;BME280;9680;52.520;13.332;2023-06-22T02:56:11;101668.72;;;21.61;71.28
19096;BME280;9680;52.520;13.332;2023-06-22T02:58:38;101670.63;;;21.59;71.55
19096;BME280;9680;52.520;13.332;2023-06-22T03:01:08;101665.53;;;21.56;71.63
19096;BME280;9680;52.520;13.332;2023-06-22T03:03:36;101658.63;;;21.53;71.73
19096;BME280;9680;52.520;13.332;2023-06-22T03:06:03;101662.34;;;21.50;71.91
19096;BME280;9680;52.520;13.332;2023-06-22T03:08:31;101666.16;;;21.46;72.33
19096;BME280;9680;52.520;13.332;2023-06-22T03:10:58;101666.59;;;21.53;72.21
19096;BME280;9680;52.520;13.332;2023-06-22T03:13:26;101671.88;;;21.53;72.25
19096;BME280;9680;52.520;13.332;2023-06-22T03:15:53;101663.63;;;21.58;72.09
19096;BME280;9680;52.520;13.332;2023-06-22T03:18:20;101668.94;;;21.58;71.82
19096;BME280;9680;52.520;13.332;2023-06-22T03:20:47;101656.72;;;21.55;71.61
19096;BME280;9680;52.520;13.332;2023-06-22T03:23:14;101662.34;;;21.50;71.74
19096;BME280;9680;52.520;13.332;2023-06-22T03:25:44;101660.97;;;21.45;71.78
19096;BME280;9680;52.520;13.332;2023-06-22T03:28:11;101660.34;;;21.41;71.60
19096;BME280;9680;52.520;13.332;2023-06-22T03:30:38;101669.25;;;21.40;71.60
19096;BME280;9680;52.520;13.332;2023-06-22T03:33:04;101667.25;;;21.44;71.42
19096;BME280;9680;52.520;13.332;2023-06-22T03:35:33;101668.94;;;21.45;71.34
19096;BME280;9680;52.520;13.332;2023-06-22T03:38:00;101663.63;;;21.45;71.00
19096;BME280;9680;52.520;13.332;2023-06-22T03:40:42;101669.75;;;21.45;70.83
19096;BME280;9680;52.520;13.332;2023-06-22T03:43:17;101669.53;;;21.48;70.91
19096;BME280;9680;52.520;13.332;2023-06-22T03:45:44;101659.69;;;21.50;70.39
19096;BME280;9680;52.520;13.332;2023-06-22T03:48:12;101658.72;;;21.51;70.33
19096;BME280;9680;52.520;13.332;2023-06-22T03:50:39;101659.59;;;21.52;69.79
19096;BME280;9680;52.520;13.332;2023-06-22T03:53:05;101657.69;;;21.54;69.59
19096;BME280;9680;52.520;13.332;2023-06-22T03:55:33;101654.94;;;21.56;69.04
19096;BME280;9680;52.520;13.332;2023-06-22T03:58:00;101654.72;;;21.59;68.74
19096;BME280;9680;52.520;13.332;2023-06-22T04:00:32;101658.94;;;21.61;68.25
19096;BME280;9680;52.520;13.332;2023-06-22T04:02:59;101668.59;;;21.62;68.29
19096;BME280;9680;52.520;13.332;2023-06-22T04:05:26;101669.34;;;21.64;68.08
19096;BME280;9680;52.520;13.332;2023-06-22T04:07:52;101667.44;;;21.66;67.94
19096;BME280;9680;52.520;13.332;2023-06-22T04:10:19;101672.53;;;21.70;68.10
19096;BME280;9680;52.520;13.332;2023-06-22T04:12:47;101670.75;;;21.70;67.86
19096;BME280;9680;52.520;13.332;2023-06-22T04:15:14;101673.28;;;21.72;67.80
19096;BME280;9680;52.520;13.332;2023-06-22T04:17:42;101675.59;;;21.76;67.98
19096;BME280;9680;52.520;13.332;2023-06-22T04:20:09;101673.91;;;21.88;67.60
19096;BME280;9680;52.520;13.332;2023-06-22T04:22:35;101676.63;;;22.00;67.09
19096;BME280;9680;52.520;13.332;2023-06-22T04:25:02;101679.16;;;22.01;66.46
19096;BME280;9680;52.520;13.332;2023-06-22T04:27:29;101687.00;;;22.03;66.30
19096;BME280;9680;52.520;13.332;2023-06-22T04:29:57;101686.56;;;22.09;66.00
19096;BME280;9680;52.520;13.332;2023-06-22T04:32:25;101687.25;;;22.24;65.98
19096;BME280;9680;52.520;13.332;2023-06-22T04:34:53;101687.84;;;22.40;65.73
19096;BME280;9680;52.520;13.332;2023-06-22T04:37:20;101682.13;;;22.58;65.23
19096;BME280;9680;52.520;13.332;2023-06-22T04:39:49;101691.44;;;22.88;64.53
19096;BME280;9680;52.520;13.332;2023-06-22T04:42:15;101692.78;;;23.05;63.99
19096;BME280;9680;52.520;13.332;2023-06-22T04:44:42;101691.34;;;23.01;63.69
19096;BME280;9680;52.520;13.332;2023-06-22T04:47:11;101695.69;;;23.02;63.43
19096;BME280;9680;52.520;13.332;2023-06-22T04:49:38;101692.53;;;22.97;63.07
19096;BME280;9680;52.520;13.332;2023-06-22T04:52:08;101694.13;;;23.00;63.09
19096;BME280;9680;52.520;13.332;2023-06-22T04:54:36;101691.50;;;23.11;62.95
19096;BME280;9680;52.520;13.332;2023-06-22T04:57:04;101697.25;;;23.29;62.69
19096;BME280;9680;52.520;13.332;2023-06-22T04:59:36;101700.00;;;23.50;61.41
19096;BME280;9680;52.520;13.332;2023-06-22T05:02:05;101696.91;;;23.68;60.43
19096;BME280;9680;52.520;13.332;2023-06-22T05:04:32;101681.50;;;23.83;59.18
19096;BME280;9680;52.520;13.332;2023-06-22T05:07:02;101693.25;;;23.92;58.90
19096;BME280;9680;52.520;13.332;2023-06-22T05:09:30;101688.66;;;23.94;58.24
19096;BME280;9680;52.520;13.332;2023-06-22T05:11:59;101694.22;;;24.02;58.52
19096;BME280;9680;52.520;13.332;2023-06-22T05:14:28;101694.13;;;24.04;57.57
19096;BME280;9680;52.520;13.332;2023-06-22T05:16:55;101695.56;;;24.08;57.45
19096;BME280;9680;52.520;13.332;2023-06-22T05:19:24;101699.28;;;24.17;57.33
19096;BME280;9680;52.520;13.332;2023-06-22T05:24:20;101703.75;;;24.16;56.13
19096;BME280;9680;52.520;13.332;2023-06-22T05:26:48;101696.75;;;24.15;55.93
19096;BME280;9680;52.520;13.332;2023-06-22T05:29:15;101701.22;;;24.14;55.66
19096;BME280;9680;52.520;13.332;2023-06-22T05:31:42;101703.50;;;24.19;55.57
19096;BME280;9680;52.520;13.332;2023-06-22T05:34:08;101702.19;;;24.25;55.23
19096;BME280;9680;52.520;13.332;2023-06-22T05:36:35;101695.03;;;24.25;54.97
19096;BME280;9680;52.520;13.332;2023-06-22T05:39:10;101699.53;;;24.25;54.46
19096;BME280;9680;52.520;13.332;2023-06-22T05:41:37;101703.41;;;24.21;54.44
19096;BME280;9680;52.520;13.332;2023-06-22T05:44:06;101709.44;;;24.23;54.13
19096;BME280;9680;52.520;13.332;2023-06-22T05:46:33;101713.06;;;24.33;53.68
19096;BME280;9680;52.520;13.332;2023-06-22T05:48:59;101707.44;;;24.48;53.49
19096;BME280;9680;52.520;13.332;2023-06-22T05:51:26;101723.56;;;24.67;53.52
19096;BME280;9680;52.520;13.332;2023-06-22T05:53:53;101718.94;;;24.81;53.07
19096;BME280;9680;52.520;13.332;2023-06-22T05:56:20;101719.75;;;24.93;53.18
19096;BME280;9680;52.520;13.332;2023-06-22T05:58:46;101722.41;;;24.93;52.33
19096;BME280;9680;52.520;13.332;2023-06-22T06:01:15;101721.84;;;24.89;52.71
19096;BME280;9680;52.520;13.332;2023-06-22T06:03:41;101718.38;;;24.77;52.91
19096;BME280;9680;52.520;13.332;2023-06-22T06:06:09;101725.88;;;24.72;53.04
19096;BME280;9680;52.520;13.332;2023-06-22T06:08:36;101723.09;;;24.62;53.17
19096;BME280;9680;52.520;13.332;2023-06-22T06:11:03;101722.19;;;24.52;53.12
19096;BME280;9680;52.520;13.332;2023-06-22T06:13:32;101716.91;;;24.40;52.66
19096;BME280;9680;52.520;13.332;2023-06-22T06:16:41;101714.53;;;24.26;52.99
19096;BME280;9680;52.520;13.332;2023-06-22T06:19:08;101711.13;;;24.24;53.49
19096;BME280;9680;52.520;13.332;2023-06-22T06:21:39;101715.72;;;24.33;53.76
19096;BME280;9680;52.520;13.332;2023-06-22T06:24:06;101709.88;;;24.39;53.34
19096;BME280;9680;52.520;13.332;2023-06-22T06:26:33;101703.59;;;24.40;52.85
19096;BME280;9680;52.520;13.332;2023-06-22T06:29:01;101708.19;;;24.38;52.14
19096;BME280;9680;52.520;13.332;2023-06-22T06:31:28;101715.78;;;24.43;52.43
19096;BME280;9680;52.520;13.332;2023-06-22T06:33:57;101723.97;;;24.51;52.01
19096;BME280;9680;52.520;13.332;2023-06-22T06:36:25;101726.88;;;24.60;52.28
19096;BME280;9680;52.520;13.332;2023-06-22T06:38:51;101728.91;;;24.67;52.06
19096;BME280;9680;52.520;13.332;2023-06-22T06:41:19;101726.56;;;24.85;51.75
19096;BME280;9680;52.520;13.332;2023-06-22T06:43:46;101729.88;;;24.99;51.49
19096;BME280;9680;52.520;13.332;2023-06-22T06:46:13;101729.25;;;25.07;50.17
19096;BME280;9680;52.520;13.332;2023-06-22T06:48:46;101712.81;;;25.01;49.58
19096;BME280;9680;52.520;13.332;2023-06-22T06:51:15;101711.69;;;25.04;49.76
19096;BME280;9680;52.520;13.332;2023-06-22T06:53:42;101709.16;;;25.03;49.26
19096;BME280;9680;52.520;13.332;2023-06-22T06:56:08;101709.28;;;25.01;49.47
19096;BME280;9680;52.520;13.332;2023-06-22T06:58:36;101705.97;;;25.09;49.92
19096;BME280;9680;52.520;13.332;2023-06-22T07:01:03;101708.72;;;25.19;49.69
19096;BME280;9680;52.520;13.332;2023-06-22T07:03:30;101703.56;;;25.27;49.64
19096;BME280;9680;52.520;13.332;2023-06-22T07:05:58;101697.72;;;25.43;49.38
19096;BME280;9680;52.520;13.332;2023-06-22T07:08:26;101694.34;;;25.62;49.31
19096;BME280;9680;52.520;13.332;2023-06-22T07:10:53;101689.97;;;25.92;48.56
19096;BME280;9680;52.520;13.332;2023-06-22T07:13:20;101682.16;;;26.20;47.60
19096;BME280;9680;52.520;13.332;2023-06-22T07:16:07;101683.31;;;26.37;46.84
19096;BME280;9680;52.520;13.332;2023-06-22T07:18:34;101673.88;;;26.53;46.42
19096;BME280;9680;52.520;13.332;2023-06-22T07:21:00;101668.97;;;26.58;45.37
19096;BME280;9680;52.520;13.332;2023-06-22T07:23:30;101675.28;;;26.47;44.59
19096;BME280;9680;52.520;13.332;2023-06-22T07:25:57;101673.31;;;26.49;44.79
19096;BME280;9680;52.520;13.332;2023-06-22T07:28:27;101666.25;;;26.78;45.11
19096;BME280;9680;52.520;13.332;2023-06-22T07:30:53;101667.97;;;26.88;44.29
19096;BME280;9680;52.520;13.332;2023-06-22T07:33:21;101666.44;;;26.86;43.14
19096;BME280;9680;52.520;13.332;2023-06-22T07:35:47;101664.75;;;26.75;43.56
19096;BME280;9680;52.520;13.332;2023-06-22T07:38:16;101658.28;;;26.87;43.35
19096;BME280;9680;52.520;13.332;2023-06-22T07:40:45;101666.09;;;27.09;43.36
19096;BME280;9680;52.520;13.332;2023-06-22T07:43:12;101662.47;;;27.38;43.16
19096;BME280;9680;52.520;13.332;2023-06-22T07:45:39;101660.09;;;27.72;42.75
19096;BME280;9680;52.520;13.332;2023-06-22T07:48:07;101666.56;;;27.98;42.42
19096;BME280;9680;52.520;13.332;2023-06-22T07:50:34;101668.00;;;28.20;41.40
19096;BME280;9680;52.520;13.332;2023-06-22T07:53:01;101664.56;;;28.28;40.48
19096;BME280;9680;52.520;13.332;2023-06-22T07:55:28;101670.53;;;28.22;39.38
19096;BME280;9680;52.520;13.332;2023-06-22T07:57:56;101657.22;;;28.02;39.33
19096;BME280;9680;52.520;13.332;2023-06-22T08:00:23;101657.00;;;27.95;38.35
19096;BME280;9680;52.520;13.332;2023-06-22T08:02:50;101659.66;;;27.77;38.04
19096;BME280;9680;52.520;13.332;2023-06-22T08:05:17;101659.59;;;27.87;38.42
19096;BME280;9680;52.520;13.332;2023-06-22T08:07:44;101665.81;;;28.05;38.81
19096;BME280;9680;52.520;13.332;2023-06-22T08:10:11;101651.84;;;28.30;38.66
19096;BME280;9680;52.520;13.332;2023-06-22T08:12:38;101659.09;;;28.38;38.19
19096;BME280;9680;52.520;13.332;2023-06-22T08:15:08;101659.91;;;28.30;37.34
19096;BME280;9680;52.520;13.332;2023-06-22T08:17:36;101660.41;;;28.15;37.22
19096;BME280;9680;52.520;13.332;2023-06-22T08:20:03;101662.75;;;28.00;37.75
19096;BME280;9680;52.520;13.332;2023-06-22T08:22:34;101657.31;;;27.92;38.27
19096;BME280;9680;52.520;13.332;2023-06-22T08:25:02;101661.28;;;27.88;38.26
19096;BME280;9680;52.520;13.332;2023-06-22T08:27:29;101660.38;;;27.97;38.42
19096;BME280;9680;52.520;13.332;2023-06-22T08:29:57;101664.56;;;28.00;37.97
19096;BME280;9680;52.520;13.332;2023-06-22T08:32:25;101666.50;;;28.08;38.38
19096;BME280;9680;52.520;13.332;2023-06-22T08:34:52;101661.66;;;28.21;37.75
19096;BME280;9680;52.520;13.332;2023-06-22T08:37:19;101660.41;;;28.33;37.46
19096;BME280;9680;52.520;13.332;2023-06-22T08:39:50;101659.47;;;28.43;36.70
19096;BME280;9680;52.520;13.332;2023-06-22T08:42:17;101656.91;;;28.51;37.29
19096;BME280;9680;52.520;13.332;2023-06-22T08:44:43;101657.72;;;28.70;37.44
19096;BME280;9680;52.520;13.332;2023-06-22T08:47:10;101653.41;;;28.77;36.63
19096;BME280;9680;52.520;13.332;2023-06-22T08:49:38;101654.25;;;28.77;36.73
19096;BME280;9680;52.520;13.332;2023-06-22T08:52:06;101655.16;;;28.86;37.14
19096;BME280;9680;52.520;13.332;2023-06-22T08:54:33;101657.06;;;28.94;37.41
19096;BME280;9680;52.520;13.332;2023-06-22T08:57:00;101662.34;;;29.12;37.12
19096;BME280;9680;52.520;13.332;2023-06-22T08:59:27;101659.41;;;29.24;37.07
19096;BME280;9680;52.520;13.332;2023-06-22T09:01:54;101652.91;;;29.34;37.38
19096;BME280;9680;52.520;13.332;2023-06-22T09:04:22;101652.84;;;29.44;37.29
19096;BME280;9680;52.520;13.332;2023-06-22T09:06:50;101645.00;;;29.59;36.65
19096;BME280;9680;52.520;13.332;2023-06-22T09:09:17;101648.63;;;29.85;36.64
19096;BME280;9680;52.520;13.332;2023-06-22T09:11:44;101650.16;;;30.04;35.98
19096;BME280;9680;52.520;13.332;2023-06-22T09:14:11;101645.31;;;30.16;36.18
19096;BME280;9680;52.520;13.332;2023-06-22T09:16:44;101638.78;;;30.18;36.03
19096;BME280;9680;52.520;13.332;2023-06-22T09:19:11;101635.72;;;30.13;36.23
19096;BME280;9680;52.520;13.332;2023-06-22T09:21:38;101648.50;;;30.03;36.27
19096;BME280;9680;52.520;13.332;2023-06-22T09:24:07;101645.59;;;29.88;36.11
19096;BME280;9680;52.520;13.332;2023-06-22T09:26:34;101641.19;;;29.78;36.54
19096;BME280;9680;52.520;13.332;2023-06-22T09:29:01;101645.38;;;29.64;35.96
19096;BME280;9680;52.520;13.332;2023-06-22T09:31:31;101641.66;;;29.57;36.33
19096;BME280;9680;52.520;13.332;2023-06-22T09:33:58;101632.69;;;29.40;35.75
19096;BME280;9680;52.520;13.332;2023-06-22T09:36:25;101635.84;;;29.09;36.17
19096;BME280;9680;52.520;13.332;2023-06-22T09:38:52;101636.94;;;28.90;36.99
19096;BME280;9680;52.520;13.332;2023-06-22T09:41:23;101633.91;;;28.85;37.38
19096;BME280;9680;52.520;13.332;2023-06-22T09:43:49;101619.88;;;28.73;36.55
19096;BME280;9680;52.520;13.332;2023-06-22T09:46:17;101625.31;;;28.63;36.73
19096;BME280;9680;52.520;13.332;2023-06-22T09:48:44;101627.69;;;28.66;37.24
19096;BME280;9680;52.520;13.332;2023-06-22T09:51:11;101629.22;;;28.69;36.81
19096;BME280;9680;52.520;13.332;2023-06-22T09:53:38;101623.06;;;28.76;36.53
19096;BME280;9680;52.520;13.332;2023-06-22T09:56:05;101632.03;;;28.85;36.75
19096;BME280;9680;52.520;13.332;2023-06-22T09:58:33;101631.44;;;29.00;37.28
19096;BME280;9680;52.520;13.332;2023-06-22T10:01:00;101627.03;;;29.17;36.64
19096;BME280;9680;52.520;13.332;2023-06-22T10:03:30;101632.41;;;29.25;36.57
19096;BME280;9680;52.520;13.332;2023-06-22T10:05:58;101637.00;;;29.33;36.62
19096;BME280;9680;52.520;13.332;2023-06-22T10:08:25;101634.53;;;29.40;36.33
19096;BME280;9680;52.520;13.332;2023-06-22T10:10:52;101630.94;;;29.31;35.94
19096;BME280;9680;52.520;13.332;2023-06-22T10:13:19;101629.41;;;29.28;36.04
19096;BME280;9680;52.520;13.332;2023-06-22T10:15:47;101629.41;;;29.28;36.33
19096;BME280;9680;52.520;13.332;2023-06-22T10:18:16;101629.44;;;29.36;36.54
19096;BME280;9680;52.520;13.332;2023-06-22T10:20:44;101620.41;;;29.38;37.01
19096;BME280;9680;52.520;13.332;2023-06-22T10:23:10;101622.47;;;29.44;36.56
19096;BME280;9680;52.520;13.332;2023-06-22T10:25:37;101618.16;;;29.51;36.82
19096;BME280;9680;52.520;13.332;2023-06-22T10:28:04;101620.00;;;29.59;36.29
19096;BME280;9680;52.520;13.332;2023-06-22T10:30:30;101616.31;;;29.60;36.75
19096;BME280;9680;52.520;13.332;2023-06-22T10:33:01;101615.00;;;29.81;36.66
19096;BME280;9680;52.520;13.332;2023-06-22T10:35:28;101613.88;;;29.91;36.85
19096;BME280;9680;52.520;13.332;2023-06-22T10:37:55;101604.13;;;29.82;36.06
19096;BME280;9680;52.520;13.332;2023-06-22T10:40:21;101599.53;;;29.58;35.97
19096;BME280;9680;52.520;13.332;2023-06-22T10:42:48;101603.06;;;29.58;36.60
19096;BME280;9680;52.520;13.332;2023-06-22T10:45:17;101603.78;;;29.77;37.11
19096;BME280;9680;52.520;13.332;2023-06-22T10:47:44;101606.78;;;29.66;36.61
19096;BME280;9680;52.520;13.332;2023-06-22T10:50:12;101594.13;;;29.41;36.33
19096;BME280;9680;52.520;13.332;2023-06-22T10:52:40;101588.13;;;29.13;36.72
19096;BME280;9680;52.520;13.332;2023-06-22T10:55:07;101587.50;;;28.92;37.19
19096;BME280;9680;52.520;13.332;2023-06-22T10:57:34;101584.78;;;28.84;37.58
19096;BME280;9680;52.520;13.332;2023-06-22T11:00:02;101580.28;;;28.85;37.88
19096;BME280;9680;52.520;13.332;2023-06-22T11:02:31;101580.28;;;28.85;38.14
19096;BME280;9680;52.520;13.332;2023-06-22T11:04:58;101576.28;;;28.89;38.32
19096;BME280;9680;52.520;13.332;2023-06-22T11:07:28;101570.13;;;29.05;37.40
19096;BME280;9680;52.520;13.332;2023-06-22T11:09:55;101563.28;;;29.02;37.34
19096;BME280;9680;52.520;13.332;2023-06-22T11:12:21;101573.00;;;29.03;37.71
19096;BME280;9680;52.520;13.332;2023-06-22T11:14:48;101573.09;;;29.28;37.52
19096;BME280;9680;52.520;13.332;2023-06-22T11:17:17;101574.66;;;29.39;36.93
19096;BME280;9680;52.520;13.332;2023-06-22T11:19:43;101564.91;;;29.38;36.41
19096;BME280;9680;52.520;13.332;2023-06-22T11:22:10;101563.44;;;29.44;36.22
19096;BME280;9680;52.520;13.332;2023-06-22T11:24:39;101562.19;;;29.89;36.18
19096;BME280;9680;52.520;13.332;2023-06-22T11:27:06;101548.44;;;30.34;35.50
19096;BME280;9680;52.520;13.332;2023-06-22T11:29:33;101547.59;;;30.50;33.83
19096;BME280;9680;52.520;13.332;2023-06-22T11:32:02;101549.75;;;30.46;33.90
19096;BME280;9680;52.520;13.332;2023-06-22T11:34:29;101549.41;;;30.58;33.29
19096;BME280;9680;52.520;13.332;2023-06-22T11:36:56;101542.53;;;30.47;33.28
19096;BME280;9680;52.520;13.332;2023-06-22T11:39:22;101548.44;;;30.42;33.35
19096;BME280;9680;52.520;13.332;2023-06-22T11:41:51;101541.22;;;30.26;33.98
19096;BME280;9680;52.520;13.332;2023-06-22T11:44:18;101551.47;;;30.06;34.36
19096;BME280;9680;52.520;13.332;2023-06-22T11:46:44;101549.75;;;29.97;34.44
19096;BME280;9680;52.520;13.332;2023-06-22T11:49:11;101554.47;;;29.86;34.63
19096;BME280;9680;52.520;13.332;2023-06-22T11:51:38;101551.44;;;29.81;34.78
19096;BME280;9680;52.520;13.332;2023-06-22T11:54:05;101559.28;;;29.58;34.42
19096;BME280;9680;52.520;13.332;2023-06-22T11:56:33;101562.53;;;29.27;35.28
19096;BME280;9680;52.520;13.332;2023-06-22T11:59:01;101562.69;;;29.33;35.19
19096;BME280;9680;52.520;13.332;2023-06-22T12:01:28;101563.09;;;29.47;34.30
19096;BME280;9680;52.520;13.332;2023-06-22T12:03:55;101548.19;;;29.44;34.91
19096;BME280;9680;52.520;13.332;2023-06-22T12:06:22;101547.88;;;29.56;34.83
19096;BME280;9680;52.520;13.332;2023-06-22T12:08:49;101545.53;;;29.53;35.06
19096;BME280;9680;52.520;13.332;2023-06-22T12:11:16;101552.91;;;29.67;34.73
19096;BME280;9680;52.520;13.332;2023-06-22T12:13:43;101538.53;;;29.85;34.53
19096;BME280;9680;52.520;13.332;2023-06-22T12:16:11;101529.31;;;30.20;34.33
19096;BME280;9680;52.520;13.332;2023-06-22T12:18:37;101530.94;;;30.46;34.26
19096;BME280;9680;52.520;13.332;2023-06-22T12:21:04;101526.50;;;30.78;34.17
19096;BME280;9680;52.520;13.332;2023-06-22T12:23:31;101523.50;;;30.73;32.95
19096;BME280;9680;52.520;13.332;2023-06-22T12:25:58;101512.78;;;30.57;33.14
19096;BME280;9680;52.520;13.332;2023-06-22T12:28:25;101504.78;;;30.40;32.89
19096;BME280;9680;52.520;13.332;2023-06-22T12:30:52;101498.41;;;30.33;33.65
19096;BME280;9680;52.520;13.332;2023-06-22T12:33:20;101497.91;;;30.29;33.52
19096;BME280;9680;52.520;13.332;2023-06-22T12:35:47;101497.06;;;30.12;34.04
19096;BME280;9680;52.520;13.332;2023-06-22T12:38:14;101502.44;;;30.04;33.83
19096;BME280;9680;52.520;13.332;2023-06-22T12:40:41;101502.94;;;29.91;33.95
19096;BME280;9680;52.520;13.332;2023-06-22T12:43:08;101497.41;;;29.76;33.78
19096;BME280;9680;52.520;13.332;2023-06-22T12:45:34;101493.19;;;29.73;34.55
19096;BME280;9680;52.520;13.332;2023-06-22T12:48:01;101491.69;;;29.79;34.70
19096;BME280;9680;52.520;13.332;2023-06-22T12:50:29;101490.88;;;29.95;34.62
19096;BME280;9680;52.520;13.332;2023-06-22T12:52:56;101476.94;;;30.16;34.08
19096;BME280;9680;52.520;13.332;2023-06-22T12:55:24;101474.38;;;30.31;33.69
19096;BME280;9680;52.520;13.332;2023-06-22T12:57:51;101481.31;;;30.17;33.64